Accueil
METAR-TAF:

METAR-TAF

Aéroports :

Le Luc, France

latitude: 43-23N, longitude: 006-23E, altitude: 80 m

Observation

Le bulletin a été fait il y a 29 minutes, à 17:00 UTC
Vent 18 kt de ouest
Température 34°C
Humidité 16%
Pression 1009 hPa
Visibilité 10 km ou plus

METAR: LFMC 251700Z AUTO 28018KT 9999 ////// 34/05 Q1009

Heure: 19:29 (17:29 UTC)


TAF: absent

Observations et prévisions météorologiques de plus de 4000 aéroports (messages METAR et TAF).

Les stations disponibles sont représentées par des disques jaunes et rouges sur la carte.

Passer la souris dessus pour voir le nom de la station.

Cliquer dessus pour voir les observations et prévisions météorologiques.

Pour changer de carte: cliquez sur les boutons verts avec une croix noire pour zoomer, sur le bouton vert avec un tiret pour effectuer un zoom arrière, ou sur les flèches vertes pour les cartes adjacentes.


METAR-TAF: